sensor_id;sensor_type;location;lat;lon;timestamp;P1;durP1;ratioP1;P2;durP2;ratioP2
29548;SDS011;16487;53.094;8.800;2023-10-09T00:01:16;1.50;;;1.27;;
29548;SDS011;16487;53.094;8.800;2023-10-09T00:03:44;1.70;;;1.60;;
29548;SDS011;16487;53.094;8.800;2023-10-09T00:06:11;3.53;;;1.50;;
29548;SDS011;16487;53.094;8.800;2023-10-09T00:08:39;3.57;;;1.20;;
29548;SDS011;16487;53.094;8.800;2023-10-09T00:11:06;2.77;;;1.60;;
29548;SDS011;16487;53.094;8.800;2023-10-09T00:13:34;5.70;;;1.43;;
29548;SDS011;16487;53.094;8.800;2023-10-09T00:16:03;1.93;;;1.17;;
29548;SDS011;16487;53.094;8.800;2023-10-09T00:18:31;1.17;;;0.80;;
29548;SDS011;16487;53.094;8.800;2023-10-09T00:20:58;0.80;;;0.80;;
29548;SDS011;16487;53.094;8.800;2023-10-09T00:23:26;1.57;;;1.33;;
29548;SDS011;16487;53.094;8.800;2023-10-09T00:25:54;7.27;;;2.43;;
29548;SDS011;16487;53.094;8.800;2023-10-09T00:28:21;2.17;;;1.40;;
29548;SDS011;16487;53.094;8.800;2023-10-09T00:30:49;1.40;;;1.27;;
29548;SDS011;16487;53.094;8.800;2023-10-09T00:33:16;2.00;;;1.03;;
29548;SDS011;16487;53.094;8.800;2023-10-09T00:35:43;6.53;;;2.17;;
29548;SDS011;16487;53.094;8.800;2023-10-09T00:38:11;1.97;;;1.40;;
29548;SDS011;16487;53.094;8.800;2023-10-09T00:40:38;1.90;;;1.80;;
29548;SDS011;16487;53.094;8.800;2023-10-09T00:43:05;1.40;;;1.30;;
29548;SDS011;16487;53.094;8.800;2023-10-09T00:45:32;1.67;;;1.50;;
29548;SDS011;16487;53.094;8.800;2023-10-09T00:48:01;5.43;;;2.60;;
29548;SDS011;16487;53.094;8.800;2023-10-09T00:50:28;1.63;;;1.30;;
29548;SDS011;16487;53.094;8.800;2023-10-09T00:52:57;1.90;;;1.70;;
29548;SDS011;16487;53.094;8.800;2023-10-09T00:55:25;3.70;;;1.43;;
29548;SDS011;16487;53.094;8.800;2023-10-09T00:57:52;2.90;;;2.00;;
29548;SDS011;16487;53.094;8.800;2023-10-09T01:00:23;2.30;;;2.10;;
29548;SDS011;16487;53.094;8.800;2023-10-09T01:02:50;1.40;;;1.30;;
29548;SDS011;16487;53.094;8.800;2023-10-09T01:05:19;5.33;;;2.27;;
29548;SDS011;16487;53.094;8.800;2023-10-09T01:07:47;1.50;;;1.40;;
29548;SDS011;16487;53.094;8.800;2023-10-09T01:10:15;2.20;;;1.60;;
29548;SDS011;16487;53.094;8.800;2023-10-09T01:12:42;2.00;;;1.20;;
29548;SDS011;16487;53.094;8.800;2023-10-09T01:15:10;2.37;;;2.00;;
29548;SDS011;16487;53.094;8.800;2023-10-09T01:17:37;1.13;;;1.13;;
29548;SDS011;16487;53.094;8.800;2023-10-09T01:20:05;1.93;;;1.70;;
29548;SDS011;16487;53.094;8.800;2023-10-09T01:22:34;1.60;;;1.20;;
29548;SDS011;16487;53.094;8.800;2023-10-09T01:25:04;2.20;;;1.30;;
29548;SDS011;16487;53.094;8.800;2023-10-09T01:27:31;5.70;;;2.57;;
29548;SDS011;16487;53.094;8.800;2023-10-09T01:29:59;4.33;;;1.50;;
29548;SDS011;16487;53.094;8.800;2023-10-09T01:32:26;1.60;;;1.50;;
29548;SDS011;16487;53.094;8.800;2023-10-09T01:34:54;2.80;;;1.87;;
29548;SDS011;16487;53.094;8.800;2023-10-09T01:37:21;2.00;;;1.90;;
29548;SDS011;16487;53.094;8.800;2023-10-09T01:39:48;2.30;;;1.80;;
29548;SDS011;16487;53.094;8.800;2023-10-09T01:42:18;1.70;;;1.60;;
29548;SDS011;16487;53.094;8.800;2023-10-09T01:44:46;1.30;;;1.20;;
29548;SDS011;16487;53.094;8.800;2023-10-09T01:47:13;1.47;;;1.33;;
29548;SDS011;16487;53.094;8.800;2023-10-09T01:49:40;2.00;;;1.73;;
29548;SDS011;16487;53.094;8.800;2023-10-09T01:52:07;2.37;;;1.70;;
29548;SDS011;16487;53.094;8.800;2023-10-09T01:54:35;2.07;;;1.70;;
29548;SDS011;16487;53.094;8.800;2023-10-09T01:57:03;2.30;;;2.10;;
29548;SDS011;16487;53.094;8.800;2023-10-09T01:59:33;3.57;;;1.87;;
29548;SDS011;16487;53.094;8.800;2023-10-09T02:02:00;1.30;;;0.90;;
29548;SDS011;16487;53.094;8.800;2023-10-09T02:04:27;4.67;;;2.00;;
29548;SDS011;16487;53.094;8.800;2023-10-09T02:06:54;2.57;;;1.80;;
29548;SDS011;16487;53.094;8.800;2023-10-09T02:09:22;2.00;;;1.87;;
29548;SDS011;16487;53.094;8.800;2023-10-09T02:11:49;4.77;;;1.60;;
29548;SDS011;16487;53.094;8.800;2023-10-09T02:14:17;2.10;;;1.87;;
29548;SDS011;16487;53.094;8.800;2023-10-09T02:16:45;3.00;;;2.17;;
29548;SDS011;16487;53.094;8.800;2023-10-09T02:19:13;1.87;;;1.43;;
29548;SDS011;16487;53.094;8.800;2023-10-09T02:21:40;2.40;;;1.50;;
29548;SDS011;16487;53.094;8.800;2023-10-09T02:24:08;1.60;;;1.50;;
29548;SDS011;16487;53.094;8.800;2023-10-09T02:26:35;2.17;;;1.37;;
29548;SDS011;16487;53.094;8.800;2023-10-09T02:29:02;1.97;;;1.80;;
29548;SDS011;16487;53.094;8.800;2023-10-09T02:31:29;2.60;;;1.57;;
29548;SDS011;16487;53.094;8.800;2023-10-09T02:33:58;2.20;;;1.73;;
29548;SDS011;16487;53.094;8.800;2023-10-09T02:36:25;2.40;;;1.37;;
29548;SDS011;16487;53.094;8.800;2023-10-09T02:38:52;2.40;;;1.90;;
29548;SDS011;16487;53.094;8.800;2023-10-09T02:41:20;4.13;;;1.53;;
29548;SDS011;16487;53.094;8.800;2023-10-09T02:43:47;3.00;;;1.60;;
29548;SDS011;16487;53.094;8.800;2023-10-09T02:46:14;1.83;;;1.43;;
29548;SDS011;16487;53.094;8.800;2023-10-09T02:48:42;3.23;;;2.03;;
29548;SDS011;16487;53.094;8.800;2023-10-09T02:51:10;2.90;;;1.90;;
29548;SDS011;16487;53.094;8.800;2023-10-09T02:53:37;3.03;;;2.70;;
29548;SDS011;16487;53.094;8.800;2023-10-09T02:56:04;1.97;;;1.70;;
29548;SDS011;16487;53.094;8.800;2023-10-09T02:58:32;2.20;;;1.97;;
29548;SDS011;16487;53.094;8.800;2023-10-09T03:00:59;4.50;;;2.50;;
29548;SDS011;16487;53.094;8.800;2023-10-09T03:03:26;2.77;;;1.60;;
29548;SDS011;16487;53.094;8.800;2023-10-09T03:05:53;3.60;;;2.03;;
29548;SDS011;16487;53.094;8.800;2023-10-09T03:08:22;2.00;;;1.70;;
29548;SDS011;16487;53.094;8.800;2023-10-09T03:10:49;2.33;;;1.73;;
29548;SDS011;16487;53.094;8.800;2023-10-09T03:13:16;2.80;;;1.97;;
29548;SDS011;16487;53.094;8.800;2023-10-09T03:15:43;3.00;;;2.23;;
29548;SDS011;16487;53.094;8.800;2023-10-09T03:18:10;4.13;;;2.20;;
29548;SDS011;16487;53.094;8.800;2023-10-09T03:20:38;3.00;;;2.33;;
29548;SDS011;16487;53.094;8.800;2023-10-09T03:23:05;2.03;;;1.63;;
29548;SDS011;16487;53.094;8.800;2023-10-09T03:25:36;3.27;;;1.90;;
29548;SDS011;16487;53.094;8.800;2023-10-09T03:28:03;4.30;;;2.30;;
29548;SDS011;16487;53.094;8.800;2023-10-09T03:30:31;2.17;;;1.83;;
29548;SDS011;16487;53.094;8.800;2023-10-09T03:32:59;1.60;;;1.47;;
29548;SDS011;16487;53.094;8.800;2023-10-09T03:35:26;2.10;;;1.67;;
29548;SDS011;16487;53.094;8.800;2023-10-09T03:37:54;5.27;;;2.77;;
29548;SDS011;16487;53.094;8.800;2023-10-09T03:40:23;2.20;;;1.90;;
29548;SDS011;16487;53.094;8.800;2023-10-09T03:42:52;2.80;;;2.33;;
29548;SDS011;16487;53.094;8.800;2023-10-09T03:45:19;3.60;;;2.50;;
29548;SDS011;16487;53.094;8.800;2023-10-09T03:47:46;3.73;;;1.93;;
29548;SDS011;16487;53.094;8.800;2023-10-09T03:50:14;2.60;;;2.33;;
29548;SDS011;16487;53.094;8.800;2023-10-09T03:52:41;2.60;;;2.10;;
29548;SDS011;16487;53.094;8.800;2023-10-09T03:55:08;4.73;;;2.50;;
29548;SDS011;16487;53.094;8.800;2023-10-09T03:57:35;7.80;;;2.20;;
29548;SDS011;16487;53.094;8.800;2023-10-09T04:00:04;1.77;;;1.63;;
29548;SDS011;16487;53.094;8.800;2023-10-09T04:02:37;3.83;;;2.40;;
29548;SDS011;16487;53.094;8.800;2023-10-09T04:05:04;2.90;;;2.17;;
29548;SDS011;16487;53.094;8.800;2023-10-09T04:07:32;2.20;;;2.00;;
29548;SDS011;16487;53.094;8.800;2023-10-09T04:09:59;4.37;;;2.40;;
29548;SDS011;16487;53.094;8.800;2023-10-09T04:12:26;3.83;;;2.10;;
29548;SDS011;16487;53.094;8.800;2023-10-09T04:14:54;4.13;;;3.07;;
29548;SDS011;16487;53.094;8.800;2023-10-09T04:17:22;7.67;;;3.13;;
29548;SDS011;16487;53.094;8.800;2023-10-09T04:19:50;4.63;;;2.53;;
29548;SDS011;16487;53.094;8.800;2023-10-09T04:22:17;4.73;;;2.57;;
29548;SDS011;16487;53.094;8.800;2023-10-09T04:24:44;2.83;;;2.57;;
29548;SDS011;16487;53.094;8.800;2023-10-09T04:27:12;3.57;;;3.00;;
29548;SDS011;16487;53.094;8.800;2023-10-09T04:29:39;4.10;;;2.13;;
29548;SDS011;16487;53.094;8.800;2023-10-09T04:32:06;5.20;;;2.90;;
29548;SDS011;16487;53.094;8.800;2023-10-09T04:34:35;3.27;;;2.70;;
29548;SDS011;16487;53.094;8.800;2023-10-09T04:37:02;7.37;;;3.77;;
29548;SDS011;16487;53.094;8.800;2023-10-09T04:39:29;4.80;;;2.57;;
29548;SDS011;16487;53.094;8.800;2023-10-09T04:41:57;4.63;;;3.50;;
29548;SDS011;16487;53.094;8.800;2023-10-09T04:44:24;4.30;;;2.63;;
29548;SDS011;16487;53.094;8.800;2023-10-09T04:46:52;111.13;;;38.37;;
29548;SDS011;16487;53.094;8.800;2023-10-09T04:49:19;9.10;;;4.43;;
29548;SDS011;16487;53.094;8.800;2023-10-09T04:51:48;6.50;;;3.47;;
29548;SDS011;16487;53.094;8.800;2023-10-09T04:54:15;6.87;;;4.33;;
29548;SDS011;16487;53.094;8.800;2023-10-09T04:56:42;7.47;;;5.03;;
29548;SDS011;16487;53.094;8.800;2023-10-09T04:59:09;7.27;;;4.40;;
29548;SDS011;16487;53.094;8.800;2023-10-09T05:01:36;7.37;;;4.33;;
29548;SDS011;16487;53.094;8.800;2023-10-09T05:04:04;4.70;;;3.63;;
29548;SDS011;16487;53.094;8.800;2023-10-09T05:06:31;5.40;;;3.20;;
29548;SDS011;16487;53.094;8.800;2023-10-09T05:09:00;7.57;;;4.47;;
29548;SDS011;16487;53.094;8.800;2023-10-09T05:11:27;5.73;;;3.80;;
29548;SDS011;16487;53.094;8.800;2023-10-09T05:13:54;5.17;;;3.20;;
29548;SDS011;16487;53.094;8.800;2023-10-09T05:16:22;7.77;;;4.70;;
29548;SDS011;16487;53.094;8.800;2023-10-09T05:18:49;7.57;;;4.77;;
29548;SDS011;16487;53.094;8.800;2023-10-09T05:21:16;43.27;;;20.97;;
29548;SDS011;16487;53.094;8.800;2023-10-09T05:23:43;8.37;;;4.97;;
29548;SDS011;16487;53.094;8.800;2023-10-09T05:26:12;10.57;;;4.57;;
29548;SDS011;16487;53.094;8.800;2023-10-09T05:28:41;9.30;;;5.10;;
29548;SDS011;16487;53.094;8.800;2023-10-09T05:31:08;6.83;;;4.87;;
29548;SDS011;16487;53.094;8.800;2023-10-09T05:33:35;16.77;;;6.57;;
29548;SDS011;16487;53.094;8.800;2023-10-09T05:36:03;12.80;;;6.00;;
29548;SDS011;16487;53.094;8.800;2023-10-09T05:38:30;11.67;;;6.90;;
29548;SDS011;16487;53.094;8.800;2023-10-09T05:40:58;13.40;;;6.30;;
29548;SDS011;16487;53.094;8.800;2023-10-09T05:43:27;9.57;;;6.80;;
29548;SDS011;16487;53.094;8.800;2023-10-09T05:45:57;10.00;;;5.97;;
29548;SDS011;16487;53.094;8.800;2023-10-09T05:48:24;17.00;;;6.60;;
29548;SDS011;16487;53.094;8.800;2023-10-09T05:50:52;13.07;;;7.00;;
29548;SDS011;16487;53.094;8.800;2023-10-09T05:53:19;14.10;;;6.80;;
29548;SDS011;16487;53.094;8.800;2023-10-09T05:55:46;12.00;;;7.00;;
29548;SDS011;16487;53.094;8.800;2023-10-09T05:58:13;11.60;;;6.73;;
29548;SDS011;16487;53.094;8.800;2023-10-09T06:00:42;9.63;;;5.60;;
29548;SDS011;16487;53.094;8.800;2023-10-09T06:03:09;16.63;;;7.73;;
29548;SDS011;16487;53.094;8.800;2023-10-09T06:05:36;13.57;;;7.40;;
29548;SDS011;16487;53.094;8.800;2023-10-09T06:08:04;14.10;;;6.80;;
29548;SDS011;16487;53.094;8.800;2023-10-09T06:10:31;13.77;;;6.87;;
29548;SDS011;16487;53.094;8.800;2023-10-09T06:12:59;12.43;;;6.73;;
29548;SDS011;16487;53.094;8.800;2023-10-09T06:15:26;17.27;;;7.33;;
29548;SDS011;16487;53.094;8.800;2023-10-09T06:17:55;15.97;;;9.67;;
29548;SDS011;16487;53.094;8.800;2023-10-09T06:20:22;19.33;;;8.20;;
29548;SDS011;16487;53.094;8.800;2023-10-09T06:22:49;10.70;;;8.03;;
29548;SDS011;16487;53.094;8.800;2023-10-09T06:25:17;10.30;;;6.30;;
29548;SDS011;16487;53.094;8.800;2023-10-09T06:27:44;21.27;;;9.43;;
29548;SDS011;16487;53.094;8.800;2023-10-09T06:30:11;16.70;;;8.10;;
29548;SDS011;16487;53.094;8.800;2023-10-09T06:32:39;18.53;;;9.33;;
29548;SDS011;16487;53.094;8.800;2023-10-09T06:35:08;18.70;;;9.63;;
29548;SDS011;16487;53.094;8.800;2023-10-09T06:37:35;19.67;;;9.07;;
29548;SDS011;16487;53.094;8.800;2023-10-09T06:40:02;17.87;;;8.93;;
29548;SDS011;16487;53.094;8.800;2023-10-09T06:42:30;23.60;;;12.00;;
29548;SDS011;16487;53.094;8.800;2023-10-09T06:44:59;19.10;;;10.20;;
29548;SDS011;16487;53.094;8.800;2023-10-09T06:47:26;20.27;;;10.60;;
29548;SDS011;16487;53.094;8.800;2023-10-09T06:49:53;21.70;;;11.87;;
29548;SDS011;16487;53.094;8.800;2023-10-09T06:52:22;19.27;;;11.20;;
29548;SDS011;16487;53.094;8.800;2023-10-09T06:54:49;18.83;;;10.63;;
29548;SDS011;16487;53.094;8.800;2023-10-09T06:57:17;27.50;;;12.43;;
29548;SDS011;16487;53.094;8.800;2023-10-09T06:59:44;20.10;;;12.23;;
29548;SDS011;16487;53.094;8.800;2023-10-09T07:02:11;28.60;;;11.77;;
29548;SDS011;16487;53.094;8.800;2023-10-09T07:04:39;22.40;;;12.43;;
29548;SDS011;16487;53.094;8.800;2023-10-09T07:07:06;17.93;;;10.87;;
29548;SDS011;16487;53.094;8.800;2023-10-09T07:09:34;24.10;;;12.57;;
29548;SDS011;16487;53.094;8.800;2023-10-09T07:12:02;23.40;;;11.73;;
29548;SDS011;16487;53.094;8.800;2023-10-09T07:14:29;16.50;;;10.40;;
29548;SDS011;16487;53.094;8.800;2023-10-09T07:16:59;21.23;;;11.47;;
29548;SDS011;16487;53.094;8.800;2023-10-09T07:19:27;20.30;;;11.63;;
29548;SDS011;16487;53.094;8.800;2023-10-09T07:21:58;24.17;;;12.20;;
29548;SDS011;16487;53.094;8.800;2023-10-09T07:24:25;22.90;;;11.90;;
29548;SDS011;16487;53.094;8.800;2023-10-09T07:26:54;30.63;;;11.37;;
29548;SDS011;16487;53.094;8.800;2023-10-09T07:29:21;22.23;;;9.97;;
29548;SDS011;16487;53.094;8.800;2023-10-09T07:31:49;23.67;;;12.90;;
29548;SDS011;16487;53.094;8.800;2023-10-09T07:34:18;23.30;;;12.37;;
29548;SDS011;16487;53.094;8.800;2023-10-09T07:36:45;21.50;;;11.67;;
29548;SDS011;16487;53.094;8.800;2023-10-09T07:39:13;20.40;;;11.37;;
29548;SDS011;16487;53.094;8.800;2023-10-09T07:41:40;22.30;;;12.23;;
29548;SDS011;16487;53.094;8.800;2023-10-09T07:44:09;19.90;;;11.27;;
29548;SDS011;16487;53.094;8.800;2023-10-09T07:46:37;23.43;;;12.20;;
29548;SDS011;16487;53.094;8.800;2023-10-09T07:49:04;20.43;;;11.90;;
29548;SDS011;16487;53.094;8.800;2023-10-09T07:51:32;20.57;;;11.70;;
29548;SDS011;16487;53.094;8.800;2023-10-09T07:53:59;26.27;;;12.63;;
29548;SDS011;16487;53.094;8.800;2023-10-09T07:56:26;30.10;;;11.80;;
29548;SDS011;16487;53.094;8.800;2023-10-09T07:58:53;21.53;;;12.00;;
29548;SDS011;16487;53.094;8.800;2023-10-09T08:01:22;18.03;;;11.63;;
29548;SDS011;16487;53.094;8.800;2023-10-09T08:03:49;17.23;;;11.17;;
29548;SDS011;16487;53.094;8.800;2023-10-09T08:06:17;23.07;;;13.07;;
29548;SDS011;16487;53.094;8.800;2023-10-09T08:08:44;23.63;;;9.97;;
29548;SDS011;16487;53.094;8.800;2023-10-09T08:11:11;22.00;;;12.40;;
29548;SDS011;16487;53.094;8.800;2023-10-09T08:13:38;24.33;;;11.83;;
29548;SDS011;16487;53.094;8.800;2023-10-09T08:16:06;23.43;;;13.60;;
29548;SDS011;16487;53.094;8.800;2023-10-09T08:18:34;26.73;;;13.17;;
29548;SDS011;16487;53.094;8.800;2023-10-09T08:21:02;15.73;;;11.40;;
29548;SDS011;16487;53.094;8.800;2023-10-09T08:23:29;18.33;;;9.10;;
29548;SDS011;16487;53.094;8.800;2023-10-09T08:25:59;21.83;;;10.83;;
29548;SDS011;16487;53.094;8.800;2023-10-09T08:28:27;22.20;;;11.40;;
29548;SDS011;16487;53.094;8.800;2023-10-09T08:30:54;23.43;;;12.47;;
29548;SDS011;16487;53.094;8.800;2023-10-09T08:33:21;19.43;;;11.40;;
29548;SDS011;16487;53.094;8.800;2023-10-09T08:35:53;24.63;;;11.27;;
29548;SDS011;16487;53.094;8.800;2023-10-09T08:38:21;16.10;;;9.47;;
29548;SDS011;16487;53.094;8.800;2023-10-09T08:40:49;23.83;;;10.67;;
29548;SDS011;16487;53.094;8.800;2023-10-09T08:43:17;16.30;;;10.53;;
29548;SDS011;16487;53.094;8.800;2023-10-09T08:45:46;18.97;;;10.83;;
29548;SDS011;16487;53.094;8.800;2023-10-09T08:48:14;17.13;;;10.50;;
29548;SDS011;16487;53.094;8.800;2023-10-09T08:50:42;14.03;;;9.70;;
29548;SDS011;16487;53.094;8.800;2023-10-09T08:53:11;21.23;;;10.83;;
29548;SDS011;16487;53.094;8.800;2023-10-09T08:55:39;19.67;;;9.67;;
29548;SDS011;16487;53.094;8.800;2023-10-09T08:58:07;20.33;;;12.37;;
29548;SDS011;16487;53.094;8.800;2023-10-09T09:00:34;18.37;;;8.90;;
29548;SDS011;16487;53.094;8.800;2023-10-09T09:03:02;18.50;;;10.77;;
29548;SDS011;16487;53.094;8.800;2023-10-09T09:05:29;16.33;;;7.90;;
29548;SDS011;16487;53.094;8.800;2023-10-09T09:07:56;22.50;;;11.73;;
29548;SDS011;16487;53.094;8.800;2023-10-09T09:10:28;35.33;;;17.10;;
29548;SDS011;16487;53.094;8.800;2023-10-09T09:12:55;18.40;;;9.97;;
29548;SDS011;16487;53.094;8.800;2023-10-09T09:15:23;55.40;;;25.70;;
29548;SDS011;16487;53.094;8.800;2023-10-09T09:17:50;15.80;;;8.53;;
29548;SDS011;16487;53.094;8.800;2023-10-09T09:20:21;21.33;;;9.90;;
29548;SDS011;16487;53.094;8.800;2023-10-09T09:22:52;17.50;;;10.50;;
29548;SDS011;16487;53.094;8.800;2023-10-09T09:25:20;18.30;;;9.37;;
29548;SDS011;16487;53.094;8.800;2023-10-09T09:27:49;20.53;;;10.33;;
29548;SDS011;16487;53.094;8.800;2023-10-09T09:30:22;19.07;;;9.87;;
29548;SDS011;16487;53.094;8.800;2023-10-09T09:32:51;14.07;;;8.07;;
29548;SDS011;16487;53.094;8.800;2023-10-09T09:35:19;18.00;;;10.47;;
29548;SDS011;16487;53.094;8.800;2023-10-09T09:37:52;14.77;;;8.97;;
29548;SDS011;16487;53.094;8.800;2023-10-09T09:40:19;13.20;;;9.17;;
29548;SDS011;16487;53.094;8.800;2023-10-09T09:42:48;12.90;;;8.47;;
29548;SDS011;16487;53.094;8.800;2023-10-09T09:45:16;18.00;;;9.90;;
29548;SDS011;16487;53.094;8.800;2023-10-09T09:47:43;20.17;;;8.50;;
29548;SDS011;16487;53.094;8.800;2023-10-09T09:50:11;15.37;;;8.67;;
29548;SDS011;16487;53.094;8.800;2023-10-09T09:52:39;12.33;;;7.97;;
29548;SDS011;16487;53.094;8.800;2023-10-09T09:55:07;13.90;;;8.00;;
29548;SDS011;16487;53.094;8.800;2023-10-09T09:57:35;14.30;;;8.23;;
29548;SDS011;16487;53.094;8.800;2023-10-09T10:00:05;18.03;;;8.43;;
29548;SDS011;16487;53.094;8.800;2023-10-09T10:02:37;22.50;;;9.23;;
29548;SDS011;16487;53.094;8.800;2023-10-09T10:05:07;16.00;;;9.27;;
29548;SDS011;16487;53.094;8.800;2023-10-09T10:07:36;17.40;;;9.90;;
29548;SDS011;16487;53.094;8.800;2023-10-09T10:10:08;15.27;;;9.07;;
29548;SDS011;16487;53.094;8.800;2023-10-09T10:13:02;17.67;;;8.57;;
29548;SDS011;16487;53.094;8.800;2023-10-09T10:18:30;13.70;;;8.40;;
29548;SDS011;16487;53.094;8.800;2023-10-09T10:21:10;14.23;;;9.00;;
29548;SDS011;16487;53.094;8.800;2023-10-09T10:23:38;13.63;;;7.80;;
29548;SDS011;16487;53.094;8.800;2023-10-09T10:26:18;16.13;;;8.03;;
29548;SDS011;16487;53.094;8.800;2023-10-09T10:31:55;17.83;;;9.07;;
29548;SDS011;16487;53.094;8.800;2023-10-09T10:34:24;11.23;;;7.70;;
29548;SDS011;16487;53.094;8.800;2023-10-09T10:36:51;13.00;;;8.00;;
29548;SDS011;16487;53.094;8.800;2023-10-09T10:39:19;9.97;;;7.63;;
29548;SDS011;16487;53.094;8.800;2023-10-09T10:41:52;8.37;;;6.57;;
29548;SDS011;16487;53.094;8.800;2023-10-09T10:44:26;13.60;;;7.47;;
29548;SDS011;16487;53.094;8.800;2023-10-09T10:46:59;14.10;;;7.50;;
29548;SDS011;16487;53.094;8.800;2023-10-09T10:49:26;12.83;;;8.87;;
29548;SDS011;16487;53.094;8.800;2023-10-09T10:51:55;12.27;;;7.60;;
29548;SDS011;16487;53.094;8.800;2023-10-09T10:54:22;9.50;;;6.70;;
29548;SDS011;16487;53.094;8.800;2023-10-09T10:56:51;9.77;;;6.73;;
29548;SDS011;16487;53.094;8.800;2023-10-09T10:59:18;12.57;;;6.93;;
29548;SDS011;16487;53.094;8.800;2023-10-09T11:01:46;12.70;;;7.13;;
29548;SDS011;16487;53.094;8.800;2023-10-09T11:04:14;12.10;;;8.23;;
29548;SDS011;16487;53.094;8.800;2023-10-09T11:06:43;9.03;;;6.33;;
29548;SDS011;16487;53.094;8.800;2023-10-09T11:09:17;13.63;;;7.50;;
29548;SDS011;16487;53.094;8.800;2023-10-09T11:11:44;12.23;;;7.40;;
29548;SDS011;16487;53.094;8.800;2023-10-09T11:14:11;10.67;;;6.97;;
29548;SDS011;16487;53.094;8.800;2023-10-09T11:16:40;11.00;;;6.77;;
29548;SDS011;16487;53.094;8.800;2023-10-09T11:19:08;13.53;;;7.80;;
29548;SDS011;16487;53.094;8.800;2023-10-09T11:21:37;8.50;;;6.60;;
29548;SDS011;16487;53.094;8.800;2023-10-09T11:24:05;8.87;;;7.10;;
29548;SDS011;16487;53.094;8.800;2023-10-09T11:26:34;10.10;;;6.10;;
29548;SDS011;16487;53.094;8.800;2023-10-09T11:31:59;8.03;;;5.43;;
29548;SDS011;16487;53.094;8.800;2023-10-09T11:34:27;7.33;;;4.93;;
29548;SDS011;16487;53.094;8.800;2023-10-09T11:36:57;8.80;;;6.43;;
29548;SDS011;16487;53.094;8.800;2023-10-09T11:39:26;8.40;;;6.33;;
29548;SDS011;16487;53.094;8.800;2023-10-09T11:41:59;8.03;;;5.43;;
29548;SDS011;16487;53.094;8.800;2023-10-09T11:44:34;8.47;;;5.90;;
29548;SDS011;16487;53.094;8.800;2023-10-09T11:47:02;11.63;;;7.20;;
29548;SDS011;16487;53.094;8.800;2023-10-09T11:49:30;7.00;;;5.40;;
29548;SDS011;16487;53.094;8.800;2023-10-09T11:52:06;6.70;;;5.50;;
29548;SDS011;16487;53.094;8.800;2023-10-09T11:54:34;10.97;;;4.80;;
29548;SDS011;16487;53.094;8.800;2023-10-09T11:57:01;6.67;;;4.70;;
29548;SDS011;16487;53.094;8.800;2023-10-09T11:59:29;6.20;;;5.60;;
29548;SDS011;16487;53.094;8.800;2023-10-09T12:01:57;6.50;;;5.33;;
29548;SDS011;16487;53.094;8.800;2023-10-09T12:04:24;9.20;;;3.90;;
29548;SDS011;16487;53.094;8.800;2023-10-09T12:06:51;6.77;;;4.97;;
29548;SDS011;16487;53.094;8.800;2023-10-09T12:09:20;4.40;;;3.60;;
29548;SDS011;16487;53.094;8.800;2023-10-09T12:11:47;4.57;;;2.90;;
29548;SDS011;16487;53.094;8.800;2023-10-09T12:14:29;5.23;;;3.20;;
29548;SDS011;16487;53.094;8.800;2023-10-09T12:16:56;3.43;;;2.97;;
29548;SDS011;16487;53.094;8.800;2023-10-09T12:19:24;3.47;;;3.17;;
29548;SDS011;16487;53.094;8.800;2023-10-09T12:21:52;3.40;;;3.10;;
29548;SDS011;16487;53.094;8.800;2023-10-09T12:24:20;4.00;;;2.60;;
29548;SDS011;16487;53.094;8.800;2023-10-09T12:26:47;3.30;;;3.00;;
29548;SDS011;16487;53.094;8.800;2023-10-09T12:29:14;3.93;;;3.10;;
29548;SDS011;16487;53.094;8.800;2023-10-09T12:31:41;2.30;;;2.07;;
29548;SDS011;16487;53.094;8.800;2023-10-09T12:34:09;12.73;;;4.77;;
29548;SDS011;16487;53.094;8.800;2023-10-09T12:36:36;2.00;;;1.80;;
29548;SDS011;16487;53.094;8.800;2023-10-09T12:39:03;3.20;;;2.33;;
29548;SDS011;16487;53.094;8.800;2023-10-09T12:41:31;3.90;;;2.50;;
29548;SDS011;16487;53.094;8.800;2023-10-09T12:43:58;8.60;;;3.13;;
29548;SDS011;16487;53.094;8.800;2023-10-09T12:46:28;6.00;;;3.27;;
29548;SDS011;16487;53.094;8.800;2023-10-09T12:48:56;4.30;;;2.53;;
29548;SDS011;16487;53.094;8.800;2023-10-09T12:51:23;4.83;;;2.93;;
29548;SDS011;16487;53.094;8.800;2023-10-09T12:53:51;3.57;;;2.40;;
29548;SDS011;16487;53.094;8.800;2023-10-09T12:56:18;2.83;;;2.40;;
29548;SDS011;16487;53.094;8.800;2023-10-09T12:58:47;4.90;;;3.10;;
29548;SDS011;16487;53.094;8.800;2023-10-09T13:01:14;7.90;;;2.57;;
29548;SDS011;16487;53.094;8.800;2023-10-09T13:03:41;2.93;;;2.10;;
29548;SDS011;16487;53.094;8.800;2023-10-09T13:06:08;12.83;;;5.73;;
29548;SDS011;16487;53.094;8.800;2023-10-09T13:08:35;2.93;;;2.17;;
29548;SDS011;16487;53.094;8.800;2023-10-09T13:11:04;4.00;;;2.03;;
29548;SDS011;16487;53.094;8.800;2023-10-09T13:13:32;4.50;;;1.90;;
29548;SDS011;16487;53.094;8.800;2023-10-09T13:16:00;1.77;;;1.67;;
29548;SDS011;16487;53.094;8.800;2023-10-09T13:18:27;3.60;;;2.57;;
29548;SDS011;16487;53.094;8.800;2023-10-09T13:20:54;2.13;;;1.93;;
29548;SDS011;16487;53.094;8.800;2023-10-09T13:23:22;2.70;;;1.80;;
29548;SDS011;16487;53.094;8.800;2023-10-09T13:25:49;1.70;;;1.60;;
29548;SDS011;16487;53.094;8.800;2023-10-09T13:28:16;3.00;;;2.20;;
29548;SDS011;16487;53.094;8.800;2023-10-09T13:30:43;2.70;;;2.10;;
29548;SDS011;16487;53.094;8.800;2023-10-09T13:33:11;3.20;;;2.00;;
29548;SDS011;16487;53.094;8.800;2023-10-09T13:35:38;1.53;;;1.27;;
29548;SDS011;16487;53.094;8.800;2023-10-09T13:38:05;2.40;;;1.73;;
29548;SDS011;16487;53.094;8.800;2023-10-09T13:40:32;3.40;;;2.47;;
29548;SDS011;16487;53.094;8.800;2023-10-09T13:43:00;4.03;;;3.00;;
29548;SDS011;16487;53.094;8.800;2023-10-09T13:45:27;2.13;;;1.80;;
29548;SDS011;16487;53.094;8.800;2023-10-09T13:47:55;3.47;;;2.20;;
29548;SDS011;16487;53.094;8.800;2023-10-09T13:50:24;2.20;;;1.13;;
29548;SDS011;16487;53.094;8.800;2023-10-09T13:52:52;2.63;;;1.80;;
29548;SDS011;16487;53.094;8.800;2023-10-09T13:55:19;2.10;;;1.50;;
29548;SDS011;16487;53.094;8.800;2023-10-09T13:57:46;2.83;;;2.63;;
29548;SDS011;16487;53.094;8.800;2023-10-09T14:00:14;2.00;;;1.77;;
29548;SDS011;16487;53.094;8.800;2023-10-09T14:02:42;3.50;;;2.00;;
29548;SDS011;16487;53.094;8.800;2023-10-09T14:05:09;2.13;;;1.70;;
29548;SDS011;16487;53.094;8.800;2023-10-09T14:07:37;4.47;;;2.80;;
29548;SDS011;16487;53.094;8.800;2023-10-09T14:10:05;6.57;;;2.03;;
29548;SDS011;16487;53.094;8.800;2023-10-09T14:12:32;3.40;;;2.00;;
29548;SDS011;16487;53.094;8.800;2023-10-09T14:14:59;2.20;;;2.00;;
29548;SDS011;16487;53.094;8.800;2023-10-09T14:17:26;1.60;;;1.47;;
29548;SDS011;16487;53.094;8.800;2023-10-09T14:19:54;3.37;;;1.70;;
29548;SDS011;16487;53.094;8.800;2023-10-09T14:22:22;2.30;;;2.03;;
29548;SDS011;16487;53.094;8.800;2023-10-09T14:24:52;2.20;;;1.60;;
29548;SDS011;16487;53.094;8.800;2023-10-09T14:27:20;3.80;;;2.70;;
29548;SDS011;16487;53.094;8.800;2023-10-09T14:29:48;3.50;;;2.70;;
29548;SDS011;16487;53.094;8.800;2023-10-09T14:32:16;2.60;;;2.30;;
29548;SDS011;16487;53.094;8.800;2023-10-09T14:34:44;2.33;;;1.70;;
29548;SDS011;16487;53.094;8.800;2023-10-09T14:37:11;1.60;;;1.40;;
29548;SDS011;16487;53.094;8.800;2023-10-09T14:39:39;6.73;;;1.77;;
29548;SDS011;16487;53.094;8.800;2023-10-09T14:42:07;2.47;;;1.83;;
29548;SDS011;16487;53.094;8.800;2023-10-09T14:44:34;2.43;;;1.70;;
29548;SDS011;16487;53.094;8.800;2023-10-09T14:47:02;2.30;;;2.10;;
29548;SDS011;16487;53.094;8.800;2023-10-09T14:49:31;6.70;;;1.83;;
29548;SDS011;16487;53.094;8.800;2023-10-09T14:51:58;6.43;;;2.33;;
29548;SDS011;16487;53.094;8.800;2023-10-09T14:54:26;5.60;;;1.70;;